Time;durP1;ratioP1;P1;durP2;ratioP2;P2;SDS_P1;SDS_P2;PMS_P1;PMS_P2;Temp;Humidity;BMP_temperature;BMP_pressure;BME280_temperature;BME280_humidity;BME280_pressure;Samples;Min_cycle;Max_cycle;Signal;HPM_P1;HPM_P2
2023/02/10 00:00:56;;;;;;;21.73;9.70;;;;;;;-6.22;88.34;102804.28;5032942;28;20026;-64
2023/02/10 00:03:21;;;;;;;18.80;8.70;;;;;;;-6.38;90.18;102808.75;5032972;28;20018;-66
2023/02/10 00:05:47;;;;;;;19.23;8.93;;;;;;;-6.47;89.95;102781.38;5032542;28;20037;-65
2023/02/10 00:08:13;;;;;;;16.37;8.70;;;;;;;-6.21;89.36;102807.69;5032720;28;20029;-66
2023/02/10 00:10:38;;;;;;;19.80;9.77;;;;;;;-6.13;88.36;102811.28;5032396;28;20055;-64
2023/02/10 00:13:04;;;;;;;21.27;9.27;;;;;;;-6.05;87.19;102805.75;4997375;28;20522;-63
2023/02/10 00:15:29;;;;;;;19.20;9.33;;;;;;;-6.16;86.62;102805.84;5032106;28;20033;-63
2023/02/10 00:17:54;;;;;;;19.77;8.57;;;;;;;-6.36;87.17;102764.59;5032628;28;20048;-62
2023/02/10 00:20:20;;;;;;;18.43;9.40;;;;;;;-6.16;87.17;102796.69;5032979;28;20033;-66
2023/02/10 00:22:45;;;;;;;17.97;9.07;;;;;;;-6.38;87.51;102773.56;5032515;28;20029;-64
2023/02/10 00:25:11;;;;;;;16.80;8.83;;;;;;;-6.44;88.85;102802.84;5031683;28;20024;-65
2023/02/10 00:27:36;;;;;;;17.97;8.60;;;;;;;-6.56;89.56;102803.59;4965183;28;20840;-65
2023/02/10 00:30:02;;;;;;;18.70;8.33;;;;;;;-6.85;91.02;102802.88;5032738;28;20573;-65
2023/02/10 00:32:27;;;;;;;20.80;8.97;;;;;;;-7.42;91.24;102675.09;5032595;28;20064;-63
2023/02/10 00:34:53;;;;;;;20.13;9.43;;;;;;;-6.65;90.98;102805.72;5032122;28;20029;-65
2023/02/10 00:37:18;;;;;;;18.47;7.80;;;;;;;-6.63;90.32;102799.28;5032230;28;20017;-63
2023/02/10 00:39:45;;;;;;;20.33;8.80;;;;;;;-6.68;90.31;102783.59;5032163;28;20046;-65
2023/02/10 00:42:10;;;;;;;18.00;8.77;;;;;;;-6.62;89.67;102795.19;5032286;28;20505;-65
2023/02/10 00:44:36;;;;;;;18.77;9.03;;;;;;;-6.69;89.47;102791.81;5012178;28;20157;-66
2023/02/10 00:47:01;;;;;;;23.90;8.47;;;;;;;-6.89;89.71;102793.97;5032007;28;20159;-63
2023/02/10 00:49:27;;;;;;;18.57;8.70;;;;;;;-6.95;89.74;102795.59;4962832;28;20042;-65
2023/02/10 00:51:52;;;;;;;13.73;7.70;;;;;;;-6.88;88.81;102793.28;5032204;28;20025;-64
2023/02/10 00:54:17;;;;;;;17.87;8.03;;;;;;;-7.19;89.17;102790.44;5031329;28;20021;-63
2023/02/10 00:56:44;;;;;;;15.60;8.23;;;;;;;-7.35;90.70;102808.31;5032076;28;20033;-65
2023/02/10 00:59:12;;;;;;;18.43;8.87;;;;;;;-7.23;90.55;102801.63;5031593;28;20514;-65
2023/02/10 01:01:38;;;;;;;19.37;9.23;;;;;;;-7.72;90.27;102730.16;5028541;28;20041;-66
2023/02/10 01:04:04;;;;;;;17.77;8.40;;;;;;;-7.55;92.06;102786.91;5028203;28;20124;-65
2023/02/10 01:06:29;;;;;;;15.80;7.67;;;;;;;-7.91;92.05;102735.69;5028178;28;20033;-65
2023/02/10 01:08:55;;;;;;;17.23;7.93;;;;;;;-8.14;91.97;102716.59;5010937;28;20051;-65
2023/02/10 01:11:20;;;;;;;15.30;7.30;;;;;;;-7.86;92.49;102770.78;5028807;28;20021;-65
2023/02/10 01:13:46;;;;;;;16.00;7.97;;;;;;;-8.20;92.53;102707.25;5028071;28;20026;-64
2023/02/10 01:16:14;;;;;;;19.07;8.30;;;;;;;-8.00;92.89;102733.66;5029715;28;20028;-68
2023/02/10 01:18:41;;;;;;;19.40;8.30;;;;;;;-7.50;91.56;102765.91;5027417;28;20041;-62
2023/02/10 01:21:15;;;;;;;16.90;8.17;;;;;;;-7.40;90.08;102778.19;5030669;28;20036;-63
2023/02/10 01:23:40;;;;;;;18.73;8.40;;;;;;;-7.44;90.01;102765.91;5029795;28;20123;-65
2023/02/10 01:26:07;;;;;;;16.83;8.20;;;;;;;-7.68;91.15;102771.66;5027106;28;20561;-65
2023/02/10 01:28:32;;;;;;;19.07;8.47;;;;;;;-7.76;92.34;102765.53;5028579;28;20096;-66
2023/02/10 01:30:58;;;;;;;18.83;8.50;;;;;;;-7.56;91.78;102772.53;5029733;28;20030;-63
2023/02/10 01:33:23;;;;;;;19.77;8.83;;;;;;;-7.53;90.98;102780.53;5029958;28;20112;-66
2023/02/10 01:35:49;;;;;;;21.40;9.37;;;;;;;-7.56;90.90;102760.91;5026866;28;20389;-65
2023/02/10 01:38:14;;;;;;;20.53;8.87;;;;;;;-7.68;91.43;102759.13;5029440;28;20029;-65
2023/02/10 01:40:39;;;;;;;17.47;8.30;;;;;;;-7.69;91.08;102744.75;5028836;28;20033;-62
2023/02/10 01:43:14;;;;;;;18.23;8.67;;;;;;;-8.02;91.54;102709.94;4974330;28;20033;-65
2023/02/10 01:45:39;;;;;;;18.70;8.20;;;;;;;-7.83;92.15;102757.78;5029854;28;20567;-63
2023/02/10 01:48:07;;;;;;;16.57;8.33;;;;;;;-7.87;92.70;102753.91;5028185;28;20116;-65
2023/02/10 01:51:03;;;;;;;21.57;9.33;;;;;;;-8.61;93.95;102697.94;5027525;28;20032;-67
2023/02/10 01:53:30;;;;;;;20.63;8.87;;;;;;;-8.47;95.22;102741.00;5027482;28;20032;-67
2023/02/10 01:55:59;;;;;;;18.63;8.33;;;;;;;-8.20;95.02;102749.84;5027729;28;20036;-65
2023/02/10 01:58:26;;;;;;;;;;;;;;;-7.97;93.32;102750.75;5028910;28;20029;-68
2023/02/10 02:00:52;;;;;;;19.70;8.53;;;;;;;-7.99;92.48;102735.50;5028304;28;20437;-66
2023/02/10 02:03:17;;;;;;;19.77;8.23;;;;;;;-7.87;91.43;102748.91;5026536;28;20030;-62
2023/02/10 02:05:43;;;;;;;20.20;9.60;;;;;;;-8.25;92.31;102736.63;5030683;28;20140;-62
2023/02/10 02:08:22;;;;;;;19.17;9.00;;;;;;;-8.39;93.67;102738.69;5030985;28;20487;-65
2023/02/10 02:10:57;;;;;;;21.55;8.68;;;;;;;-8.55;94.25;102741.44;5031273;28;20124;-65
2023/02/10 02:13:37;;;;;;;15.83;7.43;;;;;;;-8.90;96.21;102688.59;5030823;28;20037;-65
2023/02/10 02:16:12;;;;;;;19.93;8.83;;;;;;;-8.65;96.88;102744.19;5019061;28;20474;-64
2023/02/10 02:18:57;;;;;;;20.07;9.20;;;;;;;-8.69;97.61;102741.88;5030741;28;20037;-65
2023/02/10 02:21:53;;;;;;;18.40;7.90;;;;;;;-8.68;97.71;102743.72;4950659;29;20043;-68
2023/02/10 02:24:49;;;;;;;17.23;8.03;;;;;;;-8.88;97.37;102687.22;4950172;29;20042;-66
2023/02/10 02:27:26;;;;;;;20.17;9.10;;;;;;;-8.52;96.78;102730.97;4950317;29;20070;-66
2023/02/10 02:30:13;;;;;;;18.83;8.10;;;;;;;-8.86;96.98;102689.31;4947762;29;20027;-63
2023/02/10 02:32:47;;;;;;;17.07;8.87;;;;;;;-8.60;97.53;102733.94;4947816;28;20046;-64
2023/02/10 02:35:17;;;;;;;18.53;7.27;;;;;;;-8.98;96.57;102679.94;4947739;28;20039;-64
2023/02/10 02:37:44;;;;;;;16.27;8.93;;;;;;;-8.66;96.57;102739.84;4949353;28;20074;-63
2023/02/10 02:40:12;;;;;;;24.23;9.50;;;;;;;-8.96;96.51;102678.56;4948691;29;20051;-64
2023/02/10 02:42:37;;;;;;;20.87;8.63;;;;;;;-9.23;97.11;102635.28;4950401;29;20110;-64
2023/02/10 02:45:04;;;;;;;19.70;8.80;;;;;;;-8.60;97.31;102736.44;4950276;29;20506;-68
2023/02/10 02:47:50;;;;;;;17.63;9.43;;;;;;;-8.46;96.30;102737.78;4950411;29;20043;-67
2023/02/10 02:50:18;;;;;;;21.63;9.13;;;;;;;-8.31;95.82;102739.16;4950226;29;20493;-66
2023/02/10 02:52:58;;;;;;;21.47;10.47;;;;;;;-8.25;93.99;102749.16;4950308;29;20506;-64
2023/02/10 02:55:49;;;;;;;19.50;9.83;;;;;;;-8.57;95.59;102737.81;4933952;29;20039;-62
2023/02/10 02:58:53;;;;;;;22.77;9.90;;;;;;;-8.42;96.47;102743.22;4981318;28;20042;-64
2023/02/10 03:01:54;;;;;;;19.50;9.70;;;;;;;-8.22;95.70;102747.13;5029592;28;20064;-69
2023/02/10 03:04:20;;;;;;;21.23;8.77;;;;;;;-8.60;94.40;102643.78;4949982;29;20127;-62
2023/02/10 03:06:46;;;;;;;18.87;9.00;;;;;;;-7.81;93.78;102748.91;4950059;29;20126;-62
2023/02/10 03:09:14;;;;;;;21.50;9.83;;;;;;;-7.62;92.87;102744.06;4949849;29;20065;-63
2023/02/10 03:11:39;;;;;;;20.27;9.37;;;;;;;-7.48;90.87;102736.94;4949941;29;20039;-62
2023/02/10 03:14:05;;;;;;;24.57;10.20;;;;;;;-7.30;88.84;102728.66;4949790;29;20445;-64
2023/02/10 03:16:30;;;;;;;19.40;9.20;;;;;;;-7.48;87.98;102691.78;4949981;29;20126;-66
2023/02/10 03:18:56;;;;;;;22.33;9.73;;;;;;;-7.22;87.03;102734.78;4950109;29;20469;-65
2023/02/10 03:21:21;;;;;;;20.37;9.23;;;;;;;-7.47;87.69;102736.25;4949941;29;20039;-62
2023/02/10 03:23:46;;;;;;;20.23;10.07;;;;;;;-7.52;88.47;102735.56;4949998;29;20042;-62
2023/02/10 03:26:12;;;;;;;21.33;10.23;;;;;;;-7.48;88.56;102724.41;4949884;29;20098;-64
2023/02/10 03:28:37;;;;;;;25.50;9.70;;;;;;;-7.64;88.79;102716.22;4949861;29;20521;-62
2023/02/10 03:31:04;;;;;;;23.93;10.30;;;;;;;-7.73;89.19;102724.94;4950036;29;20043;-68
2023/02/10 03:33:30;;;;;;;20.63;9.10;;;;;;;-7.97;90.45;102714.03;4949777;29;20039;-64
2023/02/10 03:35:57;;;;;;;22.87;10.83;;;;;;;-7.76;91.43;102732.00;4949684;29;20042;-65
2023/02/10 03:38:22;;;;;;;22.27;10.33;;;;;;;-7.69;90.45;102738.16;4949665;29;20063;-62
2023/02/10 03:40:52;;;;;;;28.90;10.23;;;;;;;-7.66;90.53;102728.56;4979530;28;20055;-65
2023/02/10 03:43:17;;;;;;;;;;;;;;;-7.47;90.60;102722.09;5030605;28;20408;-65
2023/02/10 03:45:43;;;;;;;15.97;8.17;;;;;;;-7.39;88.90;102718.22;5030244;28;19905;-62
2023/02/10 03:48:08;;;;;;;18.33;8.40;;;;;;;-7.27;87.84;102714.03;5029995;28;20033;-62
2023/02/10 03:50:34;;;;;;;20.10;9.27;;;;;;;-7.08;86.58;102725.13;5029959;28;20087;-62
2023/02/10 03:52:59;;;;;;;20.23;9.90;;;;;;;-7.21;85.91;102727.47;5030396;28;20042;-65
2023/02/10 03:55:25;;;;;;;23.70;9.97;;;;;;;-7.13;85.69;102727.66;5029845;28;20403;-62
2023/02/10 03:57:51;;;;;;;21.10;10.60;;;;;;;-7.11;85.83;102719.66;5030279;28;20021;-66
2023/02/10 04:00:16;;;;;;;18.80;9.47;;;;;;;-7.31;85.97;102717.69;5029960;28;20472;-65
2023/02/10 04:02:42;;;;;;;18.90;9.40;;;;;;;-7.43;86.82;102723.47;5030004;28;20051;-65
2023/02/10 04:05:07;;;;;;;20.07;9.77;;;;;;;-7.56;87.86;102725.78;5030151;28;20039;-62
2023/02/10 04:07:33;;;;;;;27.10;11.13;;;;;;;-7.58;88.38;102738.81;5029607;28;20033;-65
2023/02/10 04:09:58;;;;;;;24.67;11.57;;;;;;;-7.42;88.07;102724.38;5029757;28;20040;-65
2023/02/10 04:12:24;;;;;;;22.77;11.03;;;;;;;-7.29;88.00;102724.53;5031865;28;20029;-62
2023/02/10 04:14:49;;;;;;;21.50;10.00;;;;;;;-7.48;87.27;102687.69;5033646;28;20034;-63
2023/02/10 04:17:14;;;;;;;19.03;9.37;;;;;;;-7.21;86.84;102712.41;5033639;28;20033;-63
2023/02/10 04:19:40;;;;;;;22.43;9.67;;;;;;;-7.21;86.26;102724.06;5033323;28;20118;-63
2023/02/10 04:22:06;;;;;;;18.90;9.90;;;;;;;-7.26;85.73;102693.28;5032435;28;20553;-65
2023/02/10 04:24:31;;;;;;;23.53;9.73;;;;;;;-7.19;85.58;102711.03;5033119;28;20037;-64
2023/02/10 04:26:56;;;;;;;22.07;10.77;;;;;;;-7.35;85.83;102652.72;5033864;28;20040;-67
2023/02/10 04:29:22;;;;;;;20.67;10.60;;;;;;;-7.15;85.00;102672.22;5033251;28;20025;-63
2023/02/10 04:31:48;;;;;;;21.97;10.53;;;;;;;-7.02;83.73;102697.47;5033356;28;20444;-66
2023/02/10 04:34:13;;;;;;;23.63;9.87;;;;;;;-7.07;83.04;102706.84;5033172;28;20044;-62
2023/02/10 04:36:39;;;;;;;27.07;10.80;;;;;;;-7.44;83.29;102670.56;5033198;28;20087;-65
2023/02/10 04:39:04;;;;;;;26.30;12.03;;;;;;;-7.13;83.29;102707.59;5032953;28;20049;-64
2023/02/10 04:41:30;;;;;;;20.90;10.93;;;;;;;-7.03;83.40;102710.72;5033261;28;20109;-63
2023/02/10 04:43:56;;;;;;;22.87;11.17;;;;;;;-7.03;82.83;102713.22;5032999;28;20049;-62
2023/02/10 04:46:21;;;;;;;25.77;12.73;;;;;;;-6.94;82.57;102713.63;5032954;28;20483;-62
2023/02/10 04:48:47;;;;;;;22.20;10.90;;;;;;;-6.97;82.49;102718.22;5033217;28;20038;-68
2023/02/10 04:51:13;;;;;;;19.97;10.17;;;;;;;-7.09;82.57;102718.31;5033140;28;20036;-65
2023/02/10 04:53:39;;;;;;;23.77;10.17;;;;;;;-7.10;82.88;102720.56;5033043;28;20033;-68
2023/02/10 04:56:06;;;;;;;20.20;9.30;;;;;;;-7.06;82.60;102722.84;5032611;28;20045;-65
2023/02/10 04:58:32;;;;;;;21.90;10.73;;;;;;;-7.15;82.86;102715.81;5014862;28;20041;-62
2023/02/10 05:00:57;;;;;;;19.40;9.90;;;;;;;-7.45;83.38;102674.69;5032442;28;20021;-66
2023/02/10 05:03:23;;;;;;;21.27;9.47;;;;;;;-7.17;83.56;102718.78;5017031;28;20077;-69
2023/02/10 05:05:51;;;;;;;22.27;9.93;;;;;;;-7.09;83.72;102727.41;5012660;28;20172;-62
2023/02/10 05:08:19;;;;;;;19.27;8.70;;;;;;;-7.06;83.70;102725.34;5013106;28;20079;-63
2023/02/10 05:10:46;;;;;;;20.27;9.87;;;;;;;-7.08;83.74;102726.72;5015985;28;20040;-66
2023/02/10 05:13:12;;;;;;;20.53;8.77;;;;;;;-7.34;84.29;102687.16;5017376;28;20468;-65
2023/02/10 05:15:38;;;;;;;20.27;9.90;;;;;;;-7.13;83.98;102722.66;5012358;28;20037;-63
2023/02/10 05:18:03;;;;;;;21.27;10.63;;;;;;;-7.25;83.24;102744.38;5012483;28;20137;-63
2023/02/10 05:20:28;;;;;;;19.60;9.53;;;;;;;-7.29;83.35;102743.00;5012684;28;20037;-66
2023/02/10 05:22:54;;;;;;;19.77;9.20;;;;;;;-7.21;84.00;102742.53;5011869;28;20040;-62
2023/02/10 05:25:19;;;;;;;25.30;12.23;;;;;;;-7.29;82.91;102742.13;5012234;28;20034;-63
2023/02/10 05:27:45;;;;;;;25.97;12.23;;;;;;;-7.29;83.02;102740.50;5012438;28;20037;-63
2023/02/10 05:30:12;;;;;;;29.30;14.70;;;;;;;-7.35;83.19;102740.53;4977522;28;20042;-62
2023/02/10 05:32:39;;;;;;;26.93;13.23;;;;;;;-7.57;83.18;102708.91;4995518;28;20026;-65
2023/02/10 05:35:04;;;;;;;27.53;12.57;;;;;;;-7.37;83.05;102763.59;5012097;28;20441;-62
2023/02/10 05:37:30;;;;;;;22.67;12.00;;;;;;;-7.46;83.67;102765.69;5012099;28;20076;-65
2023/02/10 05:39:55;;;;;;;28.23;12.00;;;;;;;-7.57;83.71;102758.19;5012663;28;21046;-68
2023/02/10 05:42:21;;;;;;;22.57;10.97;;;;;;;-7.60;84.01;102757.72;4993750;28;20057;-69
2023/02/10 05:44:46;;;;;;;24.23;11.47;;;;;;;-7.64;84.49;102756.38;5012110;28;20037;-66
2023/02/10 05:47:12;;;;;;;32.97;17.13;;;;;;;-7.70;84.15;102760.47;5012643;28;20472;-68
2023/02/10 05:49:37;;;;;;;26.23;14.03;;;;;;;-7.72;84.72;102759.38;5012084;28;20531;-66
2023/02/10 05:52:03;;;;;;;27.03;14.67;;;;;;;-7.73;85.08;102770.97;5012070;28;20523;-67
2023/02/10 05:54:28;;;;;;;24.73;12.43;;;;;;;-7.70;84.90;102763.91;5012179;28;20030;-66
2023/02/10 05:56:54;;;;;;;26.40;13.43;;;;;;;-7.60;85.19;102762.75;5011977;28;20485;-63
2023/02/10 05:59:19;;;;;;;26.10;12.60;;;;;;;-7.59;84.86;102765.47;5012102;28;20021;-67
2023/02/10 06:01:45;;;;;;;23.37;11.17;;;;;;;-7.87;85.15;102696.25;4960991;28;20045;-61
2023/02/10 06:04:11;;;;;;;20.93;10.80;;;;;;;-7.52;84.49;102759.78;5020856;28;20026;-64
2023/02/10 06:06:36;;;;;;;18.13;9.90;;;;;;;-7.51;85.23;102759.09;5030647;28;20061;-66
2023/02/10 06:09:02;;;;;;;23.90;10.40;;;;;;;-7.36;85.89;102761.31;5029640;28;20036;-68
2023/02/10 06:11:28;;;;;;;19.90;9.80;;;;;;;-7.25;84.99;102769.47;5029684;28;20064;-64
2023/02/10 06:13:53;;;;;;;19.00;8.27;;;;;;;-7.18;84.86;102758.06;5030105;28;20112;-66
2023/02/10 06:16:18;;;;;;;17.97;8.93;;;;;;;-7.23;84.46;102728.84;5030546;28;20083;-63
2023/02/10 06:18:47;;;;;;;17.63;8.73;;;;;;;-6.87;84.65;102761.53;5030468;28;20037;-68
2023/02/10 06:21:12;;;;;;;25.58;9.07;;;;;;;-6.69;83.88;102756.63;5030613;28;20037;-67
2023/02/10 06:23:38;;;;;;;23.40;11.37;;;;;;;-6.51;83.48;102768.38;5030597;28;20033;-67
2023/02/10 06:26:04;;;;;;;21.23;10.30;;;;;;;-6.38;83.30;102765.09;5030257;28;20489;-68
2023/02/10 06:28:29;;;;;;;21.93;10.10;;;;;;;-6.50;83.35;102729.09;5030558;28;20021;-65
2023/02/10 06:30:58;;;;;;;25.90;11.67;;;;;;;-6.32;83.23;102765.94;5030691;28;20561;-65
2023/02/10 06:33:23;;;;;;;22.45;9.75;;;;;;;-6.17;83.83;102767.22;5030810;28;20029;-63
2023/02/10 06:35:49;;;;;;;27.27;11.67;;;;;;;-6.04;83.17;102772.38;4995446;28;20043;-62
2023/02/10 06:38:16;;;;;;;26.37;10.53;;;;;;;-5.96;82.55;102770.88;5030759;28;20061;-61
2023/02/10 06:40:41;;;;;;;23.63;10.87;;;;;;;-5.92;82.41;102769.03;5031041;28;20041;-62
2023/02/10 06:43:07;;;;;;;22.67;10.47;;;;;;;-5.81;81.64;102767.09;5012991;28;20087;-62
2023/02/10 06:45:34;;;;;;;21.13;10.57;;;;;;;-5.68;80.81;102773.13;5030884;28;20037;-66
2023/02/10 06:48:00;;;;;;;19.90;10.40;;;;;;;-5.76;80.60;102764.50;5030648;28;20116;-69
2023/02/10 06:50:25;;;;;;;25.50;12.23;;;;;;;-5.71;80.97;102770.19;5030714;28;20108;-65
2023/02/10 06:52:51;;;;;;;58.57;22.87;;;;;;;-5.75;79.78;102740.28;5030901;28;20479;-67
2023/02/10 06:55:16;;;;;;;44.57;21.40;;;;;;;-5.34;80.05;102767.72;5030513;28;20033;-65
2023/02/10 06:57:42;;;;;;;23.23;10.77;;;;;;;-5.19;79.43;102771.44;5030723;28;20446;-64
2023/02/10 07:00:10;;;;;;;23.60;11.30;;;;;;;-5.42;79.94;102706.25;5030579;28;20057;-65
2023/02/10 07:02:37;;;;;;;22.63;10.68;;;;;;;-4.91;79.54;102758.47;5030386;28;20482;-68
2023/02/10 07:05:05;;;;;;;22.30;11.27;;;;;;;-4.72;78.57;102761.88;5030356;28;20033;-62
2023/02/10 07:07:31;;;;;;;20.30;10.17;;;;;;;-4.55;78.04;102763.22;5030550;28;20045;-66
2023/02/10 07:09:57;;;;;;;25.20;13.60;;;;;;;-4.48;77.33;102759.94;4979489;28;20037;-66
2023/02/10 07:12:24;;;;;;;23.33;12.33;;;;;;;-4.45;77.42;102746.13;5030265;28;20088;-61
2023/02/10 07:14:51;;;;;;;18.23;9.73;;;;;;;-4.23;76.63;102759.06;5030232;28;20029;-62
2023/02/10 07:17:16;;;;;;;21.63;10.63;;;;;;;-4.04;76.46;102758.97;5030087;28;20492;-67
2023/02/10 07:19:42;;;;;;;24.90;13.90;;;;;;;-3.95;76.11;102750.09;5012471;28;20053;-66
2023/02/10 07:22:08;;;;;;;23.47;12.27;;;;;;;-3.85;75.13;102758.19;5030529;28;20028;-66
2023/02/10 07:24:33;;;;;;;24.00;12.10;;;;;;;-3.74;75.02;102757.03;5030160;28;20033;-65
2023/02/10 07:26:59;;;;;;;22.40;11.93;;;;;;;-3.95;75.53;102767.75;5030241;28;20102;-62
2023/02/10 07:29:24;;;;;;;22.83;12.60;;;;;;;-4.13;77.10;102766.22;5030458;28;20029;-65
2023/02/10 07:31:50;;;;;;;28.67;16.53;;;;;;;-3.98;77.37;102764.84;5030277;28;20032;-61
2023/02/10 07:34:19;;;;;;;22.77;11.40;;;;;;;-3.99;77.81;102752.91;5029908;28;20063;-61
2023/02/10 07:36:45;;;;;;;21.52;10.82;;;;;;;-4.20;77.54;102677.84;5030360;28;20022;-66
2023/02/10 07:39:11;;;;;;;22.10;10.17;;;;;;;-3.51;77.09;102755.00;5029892;28;20140;-64
2023/02/10 07:41:36;;;;;;;17.90;10.43;;;;;;;-3.70;77.09;102750.78;5029741;28;20469;-63
2023/02/10 07:44:02;;;;;;;24.50;11.80;;;;;;;-3.92;77.08;102705.97;5030260;28;20029;-64
2023/02/10 07:46:27;;;;;;;24.43;10.97;;;;;;;-3.50;77.81;102761.88;5030523;28;20033;-64
2023/02/10 07:48:52;;;;;;;21.67;10.70;;;;;;;-3.25;77.49;102748.28;5030582;28;20484;-61
2023/02/10 07:51:18;;;;;;;22.50;11.47;;;;;;;-3.90;77.73;102671.75;5033928;28;20038;-67
2023/02/10 07:53:43;;;;;;;23.50;11.23;;;;;;;-3.15;76.80;102746.94;5016366;28;20037;-67
2023/02/10 07:56:09;;;;;;;24.33;12.20;;;;;;;-3.06;77.00;102743.06;5033875;28;20084;-69
2023/02/10 07:58:36;;;;;;;21.97;10.93;;;;;;;-2.99;76.53;102744.75;5034102;28;20084;-66
2023/02/10 08:01:07;;;;;;;21.17;11.87;;;;;;;-2.95;76.54;102740.28;5033650;28;20029;-63
2023/02/10 08:03:32;;;;;;;33.93;17.27;;;;;;;-2.85;76.33;102737.31;5033564;28;20041;-63
2023/02/10 08:05:57;;;;;;;27.20;14.20;;;;;;;-2.73;76.54;102729.47;5015881;28;20030;-63
2023/02/10 08:08:23;;;;;;;24.27;13.10;;;;;;;-2.65;76.23;102724.66;5033922;28;20029;-70
2023/02/10 08:10:48;;;;;;;22.60;12.17;;;;;;;-2.49;76.21;102735.09;5033509;28;20029;-65
2023/02/10 08:13:14;;;;;;;27.40;13.73;;;;;;;-2.42;75.83;102715.63;5033410;28;20037;-67
2023/02/10 08:15:39;;;;;;;22.33;12.23;;;;;;;-2.52;75.35;102676.53;5033605;28;20040;-63
2023/02/10 08:18:05;;;;;;;31.03;15.30;;;;;;;-2.11;74.78;102722.88;5033434;28;20029;-66
2023/02/10 08:20:31;;;;;;;23.30;12.73;;;;;;;-2.11;73.48;102715.28;5033441;28;20025;-66
2023/02/10 08:22:59;;;;;;;20.97;12.10;;;;;;;-1.90;72.51;102723.75;5033521;28;20047;-66
2023/02/10 08:25:25;;;;;;;21.53;12.47;;;;;;;-1.74;72.14;102721.47;5033618;28;20038;-63
2023/02/10 08:27:50;;;;;;;20.43;11.17;;;;;;;-1.71;71.28;102716.78;5033037;28;20092;-65
2023/02/10 08:30:16;;;;;;;21.93;11.03;;;;;;;-1.55;72.29;102714.50;5033228;28;20104;-68
2023/02/10 08:32:42;;;;;;;18.40;10.33;;;;;;;-1.62;69.82;102717.88;5033079;28;20087;-66
2023/02/10 08:35:07;;;;;;;20.10;10.70;;;;;;;-1.59;71.24;102715.75;5032977;28;20037;-65
2023/02/10 08:37:33;;;;;;;21.57;11.23;;;;;;;-1.39;70.90;102715.63;5033227;28;20463;-66
2023/02/10 08:39:58;;;;;;;20.93;13.57;;;;;;;-1.21;70.34;102709.34;5015188;28;20046;-63
2023/02/10 08:42:24;;;;;;;18.57;11.73;;;;;;;-1.06;67.80;102711.88;5033140;28;20034;-65
2023/02/10 08:44:50;;;;;;;22.50;11.57;;;;;;;-1.05;73.66;102716.25;5033201;28;20462;-64
2023/02/10 08:47:15;;;;;;;31.27;17.37;;;;;;;-0.96;72.51;102721.50;5032829;28;20032;-63
2023/02/10 08:49:42;;;;;;;19.40;9.27;;;;;;;-1.10;70.81;102679.31;5032822;28;20052;-68
2023/02/10 08:52:08;;;;;;;18.90;9.20;;;;;;;-0.96;69.70;102724.94;5032913;28;20033;-68
2023/02/10 08:54:33;;;;;;;17.80;8.40;;;;;;;-0.92;66.95;102714.47;5014999;28;20060;-65
2023/02/10 08:56:59;;;;;;;18.33;9.20;;;;;;;-0.74;65.84;102718.25;5032908;28;20439;-63
2023/02/10 08:59:25;;;;;;;16.40;8.37;;;;;;;-0.66;65.15;102720.09;5031504;28;20542;-65
2023/02/10 09:01:51;;;;;;;16.47;9.80;;;;;;;-0.59;67.62;102716.63;5032699;28;20034;-62
2023/02/10 09:04:17;;;;;;;16.60;9.37;;;;;;;-0.74;65.74;102664.09;5032644;28;20091;-62
2023/02/10 09:06:43;;;;;;;17.87;9.80;;;;;;;-0.35;67.01;102694.88;5032781;28;20037;-63
2023/02/10 09:09:14;;;;;;;23.47;12.87;;;;;;;-0.08;65.60;102706.44;5032682;28;20029;-65
2023/02/10 09:11:41;;;;;;;18.17;9.93;;;;;;;0.00;65.31;102703.16;4997538;28;20183;-66
2023/02/10 09:14:07;;;;;;;17.33;9.37;;;;;;;0.13;64.99;102695.31;5032286;28;20029;-66
2023/02/10 09:16:33;;;;;;;14.47;7.70;;;;;;;0.32;64.75;102690.69;5032487;28;20033;-66
2023/02/10 09:18:59;;;;;;;12.97;8.43;;;;;;;0.34;62.94;102679.06;4981120;28;20415;-64
2023/02/10 09:21:24;;;;;;;19.87;11.50;;;;;;;0.40;62.30;102697.56;5032418;28;20029;-68
2023/02/10 09:23:50;;;;;;;13.57;8.23;;;;;;;0.40;61.88;102666.13;5032785;28;20029;-66
2023/02/10 09:26:16;;;;;;;16.57;10.37;;;;;;;0.70;62.28;102689.03;5031991;28;20066;-66
2023/02/10 09:28:41;;;;;;;15.27;8.10;;;;;;;0.84;61.88;102685.50;5032009;28;20033;-64
2023/02/10 09:31:09;;;;;;;13.90;8.07;;;;;;;0.92;61.50;102676.16;5014227;28;20018;-66
2023/02/10 09:33:35;;;;;;;14.07;7.93;;;;;;;1.08;60.04;102668.63;5032464;28;20032;-67
2023/02/10 09:36:05;;;;;;;18.80;11.73;;;;;;;1.23;59.67;102675.38;5032038;28;20029;-67
2023/02/10 09:38:33;;;;;;;16.57;8.97;;;;;;;1.38;60.83;102660.88;5032261;28;20554;-63
2023/02/10 09:41:20;;;;;;;13.77;7.93;;;;;;;1.33;57.99;102656.94;5031640;28;20061;-64
2023/02/10 09:43:57;;;;;;;12.87;8.43;;;;;;;1.40;58.09;102651.78;5013343;28;20477;-66
2023/02/10 09:46:41;;;;;;;12.03;6.43;;;;;;;1.43;56.92;102647.06;5031800;28;20025;-63
2023/02/10 09:49:15;;;;;;;11.77;6.07;;;;;;;1.62;57.78;102646.50;5031735;28;20034;-66
2023/02/10 09:52:12;;;;;;;13.23;6.20;;;;;;;1.76;58.75;102638.69;5031946;28;20029;-67
2023/02/10 09:54:39;;;;;;;10.13;5.10;;;;;;;1.88;58.06;102640.75;4951170;29;20219;-65
2023/02/10 09:57:18;;;;;;;9.63;4.70;;;;;;;2.00;56.92;102629.31;4951119;29;20047;-67
2023/02/10 09:59:47;;;;;;;9.82;4.72;;;;;;;2.09;56.29;102626.84;4935357;29;20409;-62
2023/02/10 10:02:21;;;;;;;7.43;4.70;;;;;;;2.06;55.63;102619.78;4950989;29;20511;-67
2023/02/10 10:04:46;;;;;;;8.67;4.43;;;;;;;2.18;55.24;102606.50;4951179;29;20035;-68
2023/02/10 10:07:31;;;;;;;8.80;4.80;;;;;;;2.35;56.25;102615.94;4951158;29;20497;-66
2023/02/10 10:10:05;;;;;;;8.65;4.05;;;;;;;2.04;55.05;102593.22;4950707;28;20039;-66
2023/02/10 10:12:30;;;;;;;14.13;4.17;;;;;;;2.10;55.07;102609.16;4950655;29;20417;-63
2023/02/10 10:14:57;;;;;;;9.10;3.97;;;;;;;2.00;57.38;102611.47;4950940;29;20035;-63
2023/02/10 10:17:31;;;;;;;9.40;4.90;;;;;;;1.87;56.95;102567.59;4951029;29;20047;-63
2023/02/10 10:20:05;;;;;;;9.47;4.50;;;;;;;1.91;55.77;102562.13;4950887;29;20035;-68
2023/02/10 10:22:50;;;;;;;7.23;3.90;;;;;;;2.36;55.24;102605.91;4950722;29;20050;-69
2023/02/10 10:25:15;;;;;;;8.35;4.47;;;;;;;2.20;55.62;102549.88;4950690;29;20552;-66
2023/02/10 10:27:58;;;;;;;6.93;4.27;;;;;;;2.35;53.82;102554.78;4950704;29;20114;-66
2023/02/10 10:30:37;;;;;;;8.63;4.30;;;;;;;2.71;53.30;102588.25;4954587;28;20046;-65
2023/02/10 10:33:25;;;;;;;7.93;3.80;;;;;;;2.84;53.36;102581.84;5031167;28;20026;-63
2023/02/10 10:35:52;;;;;;;8.77;3.95;;;;;;;2.98;51.46;102579.06;4950152;29;20493;-68
2023/02/10 10:38:25;;;;;;;7.47;4.07;;;;;;;2.85;52.33;102538.63;4950277;29;20552;-66
2023/02/10 10:41:10;;;;;;;9.35;5.18;;;;;;;2.52;55.13;102514.06;4950497;29;20054;-63
2023/02/10 10:43:45;;;;;;;8.80;6.70;;;;;;;2.95;53.24;102550.69;4950407;29;20031;-66
2023/02/10 10:46:43;;;;;;;5.85;2.95;;;;;;;3.11;53.41;102552.25;4918850;29;20039;-61
2023/02/10 10:49:09;;;;;;;5.05;3.15;;;;;;;3.03;53.08;102552.38;4893712;29;20049;-64
2023/02/10 10:51:35;;;;;;;5.70;2.90;;;;;;;3.03;53.02;102534.50;4892943;29;20142;-63
2023/02/10 10:54:04;;;;;;;5.97;2.97;;;;;;;3.16;53.66;102551.06;4893393;29;20048;-65
2023/02/10 10:56:49;;;;;;;5.85;3.15;;;;;;;3.35;53.55;102544.50;4893176;29;20166;-64
2023/02/10 10:59:41;;;;;;;5.88;2.80;;;;;;;3.45;52.31;102543.75;4893132;29;20044;-68
2023/02/10 11:02:15;;;;;;;4.53;2.53;;;;;;;3.33;52.34;102543.44;4893098;29;20032;-64
2023/02/10 11:04:42;;;;;;;5.70;2.95;;;;;;;3.33;52.91;102533.22;4892699;29;20108;-66
2023/02/10 11:07:22;;;;;;;6.82;3.08;;;;;;;2.98;54.02;102527.13;4892542;29;20048;-66
2023/02/10 11:09:58;;;;;;;8.30;3.80;;;;;;;2.87;54.91;102518.41;4893500;29;20041;-65
2023/02/10 11:12:32;;;;;;;5.78;3.20;;;;;;;2.76;54.80;102484.16;4913357;28;20540;-63
2023/02/10 11:14:59;;;;;;;9.55;4.65;;;;;;;2.98;55.64;102509.25;4969533;28;20060;-65
2023/02/10 11:17:34;;;;;;;6.13;3.17;;;;;;;2.89;53.13;102522.00;4969233;28;20035;-63
2023/02/10 11:20:11;;;;;;;6.90;3.15;;;;;;;3.03;52.78;102521.75;4969089;28;20047;-67
2023/02/10 11:22:37;;;;;;;7.05;3.35;;;;;;;3.30;51.76;102520.16;4968706;28;20741;-63